Port-Daniel, Canada
Current Conditions -  °F | °C
As of 1:00 AM on Thursday 23 Oct 2014 (Local Time) from CYGP Reporting Station
Clear Clear  
Wind Chill: 28°   Ceiling: Unl
Heat Index: 28°   Visibility: 15mi
Dew Point: 27°   Wind: 3mph
Humidity: 93%   Direction: 240°WSW
Pressure: 30.44"   Gusts: NA
Location:  48.18°N, 64.98°W
Report Text: CYGP 230500Z 24003KT 230V310 15SM SKC M02/M03 A3044 RMK FROIN SLP311
Loading
Personal Weather Stations






























Interactive Weather Map
Tropical Storm Tracking
New forecast layout! Learn more

10-Day Weather Forecast

Advertisements
Track Severe Weather on mobile